sensor_id;sensor_type;location;lat;lon;timestamp;pressure;altitude;pressure_sealevel;temperature;humidity
85105;BME280;75457;53.198;45.008;2024-02-21T00:01:49;101472.03;;;-0.10;46.77
85105;BME280;75457;53.198;45.008;2024-02-21T00:04:15;101465.34;;;-0.04;46.60
85105;BME280;75457;53.198;45.008;2024-02-21T00:06:40;101472.03;;;-0.01;46.27
85105;BME280;75457;53.198;45.008;2024-02-21T00:09:05;101464.41;;;-0.08;46.50
85105;BME280;75457;53.198;45.008;2024-02-21T00:11:31;101462.16;;;-0.06;46.51
85105;BME280;75457;53.198;45.008;2024-02-21T00:13:56;101460.88;;;-0.08;46.51
85105;BME280;75457;53.198;45.008;2024-02-21T00:16:23;101457.84;;;-0.15;46.51
85105;BME280;75457;53.198;45.008;2024-02-21T00:18:49;101451.31;;;-0.14;46.72
85105;BME280;75457;53.198;45.008;2024-02-21T00:21:14;101455.78;;;-0.18;46.77
85105;BME280;75457;53.198;45.008;2024-02-21T00:23:40;101454.69;;;-0.17;46.91
85105;BME280;75457;53.198;45.008;2024-02-21T00:26:05;101448.59;;;-0.22;46.71
85105;BME280;75457;53.198;45.008;2024-02-21T00:28:31;101442.41;;;-0.31;46.88
85105;BME280;75457;53.198;45.008;2024-02-21T00:30:56;101435.50;;;-0.54;47.27
85105;BME280;75457;53.198;45.008;2024-02-21T00:33:23;101445.84;;;-0.56;47.07
85105;BME280;75457;53.198;45.008;2024-02-21T00:35:49;101439.94;;;-0.58;47.30
85105;BME280;75457;53.198;45.008;2024-02-21T00:38:14;101441.16;;;-0.73;47.42
85105;BME280;75457;53.198;45.008;2024-02-21T00:40:40;101440.53;;;-0.70;47.73
85105;BME280;75457;53.198;45.008;2024-02-21T00:43:05;101443.66;;;-0.85;47.61
85105;BME280;75457;53.198;45.008;2024-02-21T00:45:30;101432.25;;;-0.73;47.28
85105;BME280;75457;53.198;45.008;2024-02-21T00:47:56;101440.81;;;-0.80;47.53
85105;BME280;75457;53.198;45.008;2024-02-21T00:50:23;101430.81;;;-0.79;47.54
85105;BME280;75457;53.198;45.008;2024-02-21T00:52:48;101433.00;;;-0.81;47.56
85105;BME280;75457;53.198;45.008;2024-02-21T00:55:13;101431.91;;;-0.72;47.13
85105;BME280;75457;53.198;45.008;2024-02-21T00:57:39;101428.75;;;-0.74;47.49
85105;BME280;75457;53.198;45.008;2024-02-21T01:00:05;101427.72;;;-0.86;47.46
85105;BME280;75457;53.198;45.008;2024-02-21T01:02:30;101430.72;;;-0.96;47.81
85105;BME280;75457;53.198;45.008;2024-02-21T01:04:56;101423.31;;;-0.82;47.69
85105;BME280;75457;53.198;45.008;2024-02-21T01:07:23;101428.91;;;-0.70;47.36
85105;BME280;75457;53.198;45.008;2024-02-21T01:09:49;101423.19;;;-0.69;47.02
85105;BME280;75457;53.198;45.008;2024-02-21T01:12:14;101427.03;;;-0.61;46.93
85105;BME280;75457;53.198;45.008;2024-02-21T01:14:39;101417.47;;;-0.67;46.89
85105;BME280;75457;53.198;45.008;2024-02-21T01:17:05;101417.66;;;-0.64;46.75
85105;BME280;75457;53.198;45.008;2024-02-21T01:19:31;101416.88;;;-0.47;46.60
85105;BME280;75457;53.198;45.008;2024-02-21T01:21:56;101419.59;;;-0.39;46.53
85105;BME280;75457;53.198;45.008;2024-02-21T01:24:23;101415.50;;;-0.28;46.50
85105;BME280;75457;53.198;45.008;2024-02-21T01:26:49;101422.97;;;-0.25;46.02
85105;BME280;75457;53.198;45.008;2024-02-21T01:29:14;101418.22;;;-0.19;45.79
85105;BME280;75457;53.198;45.008;2024-02-21T01:31:39;101412.28;;;-0.30;45.90
85105;BME280;75457;53.198;45.008;2024-02-21T01:34:05;101416.75;;;-0.42;46.15
85105;BME280;75457;53.198;45.008;2024-02-21T01:36:30;101417.22;;;-0.40;46.07
85105;BME280;75457;53.198;45.008;2024-02-21T01:38:56;101409.56;;;-0.47;46.08
85105;BME280;75457;53.198;45.008;2024-02-21T01:41:23;101405.91;;;-0.51;46.29
85105;BME280;75457;53.198;45.008;2024-02-21T01:43:48;101408.56;;;-0.59;46.28
85105;BME280;75457;53.198;45.008;2024-02-21T01:46:14;101413.06;;;-0.46;46.35
85105;BME280;75457;53.198;45.008;2024-02-21T01:48:39;101407.03;;;-0.35;45.73
85105;BME280;75457;53.198;45.008;2024-02-21T01:51:05;101407.69;;;-0.29;45.76
85105;BME280;75457;53.198;45.008;2024-02-21T01:53:31;101403.69;;;-0.40;45.51
85105;BME280;75457;53.198;45.008;2024-02-21T01:55:58;101406.06;;;-0.47;45.97
85105;BME280;75457;53.198;45.008;2024-02-21T01:58:25;101410.28;;;-0.72;46.03
85105;BME280;75457;53.198;45.008;2024-02-21T02:00:51;101407.91;;;-0.73;45.78
85105;BME280;75457;53.198;45.008;2024-02-21T02:03:17;101392.59;;;-0.78;45.90
85105;BME280;75457;53.198;45.008;2024-02-21T02:05:44;101398.78;;;-0.86;45.71
85105;BME280;75457;53.198;45.008;2024-02-21T02:08:09;101394.53;;;-0.78;45.82
85105;BME280;75457;53.198;45.008;2024-02-21T02:10:35;101394.69;;;-0.75;45.70
85105;BME280;75457;53.198;45.008;2024-02-21T02:13:01;101402.13;;;-0.80;45.37
85105;BME280;75457;53.198;45.008;2024-02-21T02:15:37;101402.72;;;-1.00;45.56
85105;BME280;75457;53.198;45.008;2024-02-21T02:18:03;101397.44;;;-1.05;45.68
85105;BME280;75457;53.198;45.008;2024-02-21T02:20:29;101401.94;;;-1.01;45.80
85105;BME280;75457;53.198;45.008;2024-02-21T02:22:55;101404.63;;;-1.01;45.13
85105;BME280;75457;53.198;45.008;2024-02-21T02:25:22;101403.53;;;-1.00;45.06
85105;BME280;75457;53.198;45.008;2024-02-21T02:27:47;101402.72;;;-1.00;45.48
85105;BME280;75457;53.198;45.008;2024-02-21T02:30:13;101398.72;;;-1.03;45.18
85105;BME280;75457;53.198;45.008;2024-02-21T02:32:39;101407.31;;;-1.09;45.35
85105;BME280;75457;53.198;45.008;2024-02-21T02:35:05;101401.41;;;-1.11;45.42
85105;BME280;75457;53.198;45.008;2024-02-21T02:37:30;101397.88;;;-1.20;44.95
85105;BME280;75457;53.198;45.008;2024-02-21T02:39:56;101410.22;;;-1.28;45.55
85105;BME280;75457;53.198;45.008;2024-02-21T02:42:23;101406.25;;;-1.30;45.12
85105;BME280;75457;53.198;45.008;2024-02-21T02:44:48;101402.66;;;-1.48;45.68
85105;BME280;75457;53.198;45.008;2024-02-21T02:47:14;101408.81;;;-1.78;45.83
85105;BME280;75457;53.198;45.008;2024-02-21T02:49:40;101412.53;;;-1.65;46.43
85105;BME280;75457;53.198;45.008;2024-02-21T02:52:05;101411.31;;;-1.59;45.21
85105;BME280;75457;53.198;45.008;2024-02-21T02:54:30;101415.66;;;-1.50;45.73
85105;BME280;75457;53.198;45.008;2024-02-21T02:56:56;101411.59;;;-1.39;45.23
85105;BME280;75457;53.198;45.008;2024-02-21T02:59:23;101409.25;;;-1.32;44.97
85105;BME280;75457;53.198;45.008;2024-02-21T03:01:48;101412.75;;;-1.31;44.96
85105;BME280;75457;53.198;45.008;2024-02-21T03:04:14;101407.94;;;-1.34;44.98
85105;BME280;75457;53.198;45.008;2024-02-21T03:06:40;101405.41;;;-1.39;44.81
85105;BME280;75457;53.198;45.008;2024-02-21T03:09:05;101406.44;;;-1.49;44.48
85105;BME280;75457;53.198;45.008;2024-02-21T03:11:31;101410.88;;;-1.53;44.99
85105;BME280;75457;53.198;45.008;2024-02-21T03:13:56;101404.84;;;-1.50;44.61
85105;BME280;75457;53.198;45.008;2024-02-21T03:16:23;101413.59;;;-1.53;44.56
85105;BME280;75457;53.198;45.008;2024-02-21T03:18:49;101408.84;;;-1.47;44.31
85105;BME280;75457;53.198;45.008;2024-02-21T03:21:14;101417.56;;;-1.50;45.14
85105;BME280;75457;53.198;45.008;2024-02-21T03:23:40;101415.97;;;-1.51;44.40
85105;BME280;75457;53.198;45.008;2024-02-21T03:26:05;101417.88;;;-1.52;44.31
85105;BME280;75457;53.198;45.008;2024-02-21T03:28:31;101412.53;;;-1.65;44.58
85105;BME280;75457;53.198;45.008;2024-02-21T03:30:56;101416.97;;;-1.69;43.89
85105;BME280;75457;53.198;45.008;2024-02-21T03:33:23;101421.09;;;-1.72;44.40
85105;BME280;75457;53.198;45.008;2024-02-21T03:35:49;101424.31;;;-1.83;44.42
85105;BME280;75457;53.198;45.008;2024-02-21T03:38:14;101436.22;;;-1.84;45.08
85105;BME280;75457;53.198;45.008;2024-02-21T03:40:40;101435.00;;;-1.78;44.63
85105;BME280;75457;53.198;45.008;2024-02-21T03:43:05;101434.59;;;-1.72;44.44
85105;BME280;75457;53.198;45.008;2024-02-21T03:45:31;101434.78;;;-1.68;44.45
85105;BME280;75457;53.198;45.008;2024-02-21T03:47:57;101440.66;;;-1.66;44.52
85105;BME280;75457;53.198;45.008;2024-02-21T03:50:24;101434.16;;;-1.65;44.82
85105;BME280;75457;53.198;45.008;2024-02-21T03:52:49;101442.25;;;-1.65;44.87
85105;BME280;75457;53.198;45.008;2024-02-21T03:55:15;101441.22;;;-1.78;45.28
85105;BME280;75457;53.198;45.008;2024-02-21T03:57:40;101440.81;;;-1.85;45.24
85105;BME280;75457;53.198;45.008;2024-02-21T04:00:07;101443.22;;;-1.83;44.74
85105;BME280;75457;53.198;45.008;2024-02-21T04:02:32;101446.91;;;-1.79;45.07
85105;BME280;75457;53.198;45.008;2024-02-21T04:04:58;101446.69;;;-1.69;44.88
85105;BME280;75457;53.198;45.008;2024-02-21T04:07:25;101451.69;;;-1.54;44.66
85105;BME280;75457;53.198;45.008;2024-02-21T04:09:50;101443.84;;;-1.42;44.71
85105;BME280;75457;53.198;45.008;2024-02-21T04:12:16;101441.38;;;-1.30;44.12
85105;BME280;75457;53.198;45.008;2024-02-21T04:14:41;101447.88;;;-1.31;44.52
85105;BME280;75457;53.198;45.008;2024-02-21T04:17:07;101444.53;;;-1.28;44.26
85105;BME280;75457;53.198;45.008;2024-02-21T04:19:32;101456.81;;;-1.22;44.38
85105;BME280;75457;53.198;45.008;2024-02-21T04:21:58;101456.22;;;-1.19;44.12
85105;BME280;75457;53.198;45.008;2024-02-21T04:24:25;101452.41;;;-1.18;44.52
85105;BME280;75457;53.198;45.008;2024-02-21T04:26:51;101456.88;;;-1.14;44.38
85105;BME280;75457;53.198;45.008;2024-02-21T04:29:16;101462.44;;;-1.19;44.17
85105;BME280;75457;53.198;45.008;2024-02-21T04:31:42;101461.94;;;-1.21;44.38
85105;BME280;75457;53.198;45.008;2024-02-21T04:34:07;101456.66;;;-1.26;44.19
85105;BME280;75457;53.198;45.008;2024-02-21T04:36:33;101454.75;;;-1.25;44.23
85105;BME280;75457;53.198;45.008;2024-02-21T04:38:58;101454.06;;;-1.31;43.67
85105;BME280;75457;53.198;45.008;2024-02-21T04:41:25;101453.41;;;-1.36;43.14
85105;BME280;75457;53.198;45.008;2024-02-21T04:43:52;101457.75;;;-1.27;43.08
85105;BME280;75457;53.198;45.008;2024-02-21T04:46:17;101460.69;;;-1.45;43.43
85105;BME280;75457;53.198;45.008;2024-02-21T04:48:43;101463.13;;;-1.57;43.58
85105;BME280;75457;53.198;45.008;2024-02-21T04:51:08;101456.13;;;-1.58;43.47
85105;BME280;75457;53.198;45.008;2024-02-21T04:53:34;101463.31;;;-1.54;42.55
85105;BME280;75457;53.198;45.008;2024-02-21T04:55:59;101471.09;;;-1.52;42.52
85105;BME280;75457;53.198;45.008;2024-02-21T04:58:26;101465.50;;;-1.56;42.02
85105;BME280;75457;53.198;45.008;2024-02-21T05:00:52;101474.75;;;-1.70;42.05
85105;BME280;75457;53.198;45.008;2024-02-21T05:03:18;101472.53;;;-1.90;42.58
85105;BME280;75457;53.198;45.008;2024-02-21T05:05:43;101480.00;;;-2.09;42.88
85105;BME280;75457;53.198;45.008;2024-02-21T05:08:09;101475.44;;;-2.22;43.45
85105;BME280;75457;53.198;45.008;2024-02-21T05:10:35;101469.94;;;-2.31;43.45
85105;BME280;75457;53.198;45.008;2024-02-21T05:13:00;101476.13;;;-2.30;43.03
85105;BME280;75457;53.198;45.008;2024-02-21T05:15:27;101472.34;;;-2.43;43.74
85105;BME280;75457;53.198;45.008;2024-02-21T05:17:53;101478.63;;;-2.34;43.62
85105;BME280;75457;53.198;45.008;2024-02-21T05:20:18;101476.84;;;-2.25;43.12
85105;BME280;75457;53.198;45.008;2024-02-21T05:22:44;101480.91;;;-2.14;42.42
85105;BME280;75457;53.198;45.008;2024-02-21T05:25:10;101487.28;;;-2.10;42.90
85105;BME280;75457;53.198;45.008;2024-02-21T05:27:35;101477.31;;;-2.09;42.38
85105;BME280;75457;53.198;45.008;2024-02-21T05:30:01;101475.28;;;-2.04;43.17
85105;BME280;75457;53.198;45.008;2024-02-21T05:32:28;101480.16;;;-1.92;42.62
85105;BME280;75457;53.198;45.008;2024-02-21T05:34:54;101479.59;;;-1.81;42.10
85105;BME280;75457;53.198;45.008;2024-02-21T05:37:19;101477.63;;;-1.75;42.64
85105;BME280;75457;53.198;45.008;2024-02-21T05:39:45;101480.78;;;-1.73;42.82
85105;BME280;75457;53.198;45.008;2024-02-21T05:42:10;101482.75;;;-1.65;42.52
85105;BME280;75457;53.198;45.008;2024-02-21T05:44:36;101478.16;;;-1.65;42.68
85105;BME280;75457;53.198;45.008;2024-02-21T05:47:01;101484.28;;;-1.73;43.24
85105;BME280;75457;53.198;45.008;2024-02-21T05:49:28;101483.88;;;-1.66;42.59
85105;BME280;75457;53.198;45.008;2024-02-21T05:51:54;101483.75;;;-1.61;42.96
85105;BME280;75457;53.198;45.008;2024-02-21T05:54:19;101486.81;;;-1.54;42.51
85105;BME280;75457;53.198;45.008;2024-02-21T05:56:45;101478.22;;;-1.56;42.89
85105;BME280;75457;53.198;45.008;2024-02-21T05:59:11;101488.16;;;-1.65;42.72
85105;BME280;75457;53.198;45.008;2024-02-21T06:01:36;101486.97;;;-1.73;42.77
85105;BME280;75457;53.198;45.008;2024-02-21T06:04:02;101489.09;;;-1.70;43.15
85105;BME280;75457;53.198;45.008;2024-02-21T06:06:29;101492.97;;;-1.62;43.11
85105;BME280;75457;53.198;45.008;2024-02-21T06:08:54;101484.75;;;-1.57;43.77
85105;BME280;75457;53.198;45.008;2024-02-21T06:11:20;101489.16;;;-1.61;43.59
85105;BME280;75457;53.198;45.008;2024-02-21T06:13:45;101489.81;;;-1.78;44.60
85105;BME280;75457;53.198;45.008;2024-02-21T06:16:11;101492.69;;;-1.52;43.98
85105;BME280;75457;53.198;45.008;2024-02-21T06:18:36;101490.88;;;-1.43;44.26
85105;BME280;75457;53.198;45.008;2024-02-21T06:21:02;101489.00;;;-1.34;43.49
85105;BME280;75457;53.198;45.008;2024-02-21T06:23:29;101488.78;;;-1.24;44.07
85105;BME280;75457;53.198;45.008;2024-02-21T06:25:55;101491.06;;;-1.18;43.81
85105;BME280;75457;53.198;45.008;2024-02-21T06:28:20;101490.59;;;-1.11;43.73
85105;BME280;75457;53.198;45.008;2024-02-21T06:30:46;101490.53;;;-1.20;44.31
85105;BME280;75457;53.198;45.008;2024-02-21T06:33:11;101487.66;;;-1.23;44.13
85105;BME280;75457;53.198;45.008;2024-02-21T06:35:37;101489.88;;;-1.03;43.61
85105;BME280;75457;53.198;45.008;2024-02-21T06:38:02;101493.41;;;-0.94;44.27
85105;BME280;75457;53.198;45.008;2024-02-21T06:40:29;101487.25;;;-0.78;43.47
85105;BME280;75457;53.198;45.008;2024-02-21T06:42:55;101490.38;;;-0.54;42.83
85105;BME280;75457;53.198;45.008;2024-02-21T06:45:20;101485.34;;;-0.47;42.79
85105;BME280;75457;53.198;45.008;2024-02-21T06:47:45;101482.63;;;-0.47;42.95
85105;BME280;75457;53.198;45.008;2024-02-21T06:50:11;101482.63;;;-0.47;42.90
85105;BME280;75457;53.198;45.008;2024-02-21T06:52:37;101493.19;;;-0.28;42.62
85105;BME280;75457;53.198;45.008;2024-02-21T06:55:02;101490.78;;;-0.22;42.74
85105;BME280;75457;53.198;45.008;2024-02-21T06:57:30;101492.41;;;-0.20;42.32
85105;BME280;75457;53.198;45.008;2024-02-21T06:59:56;101500.06;;;-0.14;42.56
85105;BME280;75457;53.198;45.008;2024-02-21T07:02:21;101489.25;;;-0.06;42.81
85105;BME280;75457;53.198;45.008;2024-02-21T07:04:47;101493.72;;;0.07;42.29
85105;BME280;75457;53.198;45.008;2024-02-21T07:07:12;101485.75;;;0.19;42.10
85105;BME280;75457;53.198;45.008;2024-02-21T07:09:38;101482.13;;;0.15;42.24
85105;BME280;75457;53.198;45.008;2024-02-21T07:12:09;101499.63;;;0.01;42.29
85105;BME280;75457;53.198;45.008;2024-02-21T07:14:36;101485.28;;;0.09;41.99
85105;BME280;75457;53.198;45.008;2024-02-21T07:17:02;101485.44;;;0.12;42.10
85105;BME280;75457;53.198;45.008;2024-02-21T07:19:27;101484.50;;;0.25;42.37
85105;BME280;75457;53.198;45.008;2024-02-21T07:21:53;101494.84;;;0.15;42.12
85105;BME280;75457;53.198;45.008;2024-02-21T07:24:18;101493.25;;;0.14;42.50
85105;BME280;75457;53.198;45.008;2024-02-21T07:26:44;101493.06;;;-0.07;42.20
85105;BME280;75457;53.198;45.008;2024-02-21T07:29:09;101496.09;;;0.00;42.64
85105;BME280;75457;53.198;45.008;2024-02-21T07:31:40;101501.06;;;-0.02;42.16
85105;BME280;75457;53.198;45.008;2024-02-21T07:34:06;101493.25;;;0.05;42.02
85105;BME280;75457;53.198;45.008;2024-02-21T07:36:31;101499.13;;;-0.01;42.27
85105;BME280;75457;53.198;45.008;2024-02-21T07:38:57;101490.97;;;-0.10;42.24
85105;BME280;75457;53.198;45.008;2024-02-21T07:41:22;101499.47;;;-0.03;42.53
85105;BME280;75457;53.198;45.008;2024-02-21T07:43:47;101496.19;;;-0.30;42.52
85105;BME280;75457;53.198;45.008;2024-02-21T07:46:13;101495.06;;;-0.37;42.85
85105;BME280;75457;53.198;45.008;2024-02-21T07:48:40;101504.81;;;-0.28;42.95
85105;BME280;75457;53.198;45.008;2024-02-21T07:51:05;101501.47;;;-0.25;42.81
85105;BME280;75457;53.198;45.008;2024-02-21T07:53:31;101494.66;;;-0.14;42.90
85105;BME280;75457;53.198;45.008;2024-02-21T07:55:56;101502.19;;;0.06;42.28
85105;BME280;75457;53.198;45.008;2024-02-21T07:58:21;101495.13;;;-0.12;42.74
85105;BME280;75457;53.198;45.008;2024-02-21T08:00:47;101508.19;;;-0.06;42.88
85105;BME280;75457;53.198;45.008;2024-02-21T08:03:12;101500.28;;;0.32;42.23
85105;BME280;75457;53.198;45.008;2024-02-21T08:05:39;101507.75;;;0.26;42.05
85105;BME280;75457;53.198;45.008;2024-02-21T08:08:05;101506.16;;;0.34;42.29
85105;BME280;75457;53.198;45.008;2024-02-21T08:10:31;101511.28;;;0.52;42.00
85105;BME280;75457;53.198;45.008;2024-02-21T08:12:56;101512.72;;;0.67;41.60
85105;BME280;75457;53.198;45.008;2024-02-21T08:15:22;101509.69;;;0.51;41.89
85105;BME280;75457;53.198;45.008;2024-02-21T08:17:47;101513.50;;;0.50;42.34
85105;BME280;75457;53.198;45.008;2024-02-21T08:20:13;101510.31;;;0.23;42.08
85105;BME280;75457;53.198;45.008;2024-02-21T08:22:40;101509.84;;;0.21;42.08
85105;BME280;75457;53.198;45.008;2024-02-21T08:25:06;101506.00;;;0.39;41.87
85105;BME280;75457;53.198;45.008;2024-02-21T08:27:32;101503.16;;;0.52;41.66
85105;BME280;75457;53.198;45.008;2024-02-21T08:29:57;101497.22;;;0.59;41.37
85105;BME280;75457;53.198;45.008;2024-02-21T08:32:23;101495.16;;;0.73;41.54
85105;BME280;75457;53.198;45.008;2024-02-21T08:34:48;101498.19;;;0.71;41.52
85105;BME280;75457;53.198;45.008;2024-02-21T08:37:14;101495.16;;;0.73;41.43
85105;BME280;75457;53.198;45.008;2024-02-21T08:39:41;101499.31;;;0.62;41.08
85105;BME280;75457;53.198;45.008;2024-02-21T08:42:06;101495.47;;;0.80;41.52
85105;BME280;75457;53.198;45.008;2024-02-21T08:44:32;101495.00;;;0.86;41.76
85105;BME280;75457;53.198;45.008;2024-02-21T08:46:57;101484.63;;;0.71;41.07
85105;BME280;75457;53.198;45.008;2024-02-21T08:49:22;101494.53;;;0.59;41.69
85105;BME280;75457;53.198;45.008;2024-02-21T08:51:48;101485.13;;;0.56;42.02
85105;BME280;75457;53.198;45.008;2024-02-21T08:54:14;101483.34;;;0.77;41.10
85105;BME280;75457;53.198;45.008;2024-02-21T08:56:40;101487.78;;;0.82;41.03
85105;BME280;75457;53.198;45.008;2024-02-21T08:59:06;101486.31;;;1.01;41.13
85105;BME280;75457;53.198;45.008;2024-02-21T09:01:31;101482.78;;;1.09;41.19
85105;BME280;75457;53.198;45.008;2024-02-21T09:03:57;101485.59;;;1.21;40.40
85105;BME280;75457;53.198;45.008;2024-02-21T09:06:23;101478.06;;;1.35;40.06
85105;BME280;75457;53.198;45.008;2024-02-21T09:08:48;101479.72;;;1.19;40.63
85105;BME280;75457;53.198;45.008;2024-02-21T09:11:17;101484.03;;;1.12;40.60
85105;BME280;75457;53.198;45.008;2024-02-21T09:13:43;101480.19;;;1.21;40.53
85105;BME280;75457;53.198;45.008;2024-02-21T09:16:09;101483.88;;;1.17;40.86
85105;BME280;75457;53.198;45.008;2024-02-21T09:18:34;101484.13;;;0.86;40.54
85105;BME280;75457;53.198;45.008;2024-02-21T09:21:00;101480.97;;;0.67;41.16
85105;BME280;75457;53.198;45.008;2024-02-21T09:23:26;101486.72;;;0.66;40.69
85105;BME280;75457;53.198;45.008;2024-02-21T09:25:51;101478.34;;;0.96;40.25
85105;BME280;75457;53.198;45.008;2024-02-21T09:28:17;101479.09;;;1.14;40.10
85105;BME280;75457;53.198;45.008;2024-02-21T09:30:44;101472.72;;;1.18;41.14
85105;BME280;75457;53.198;45.008;2024-02-21T09:33:09;101479.84;;;1.31;40.83
85105;BME280;75457;53.198;45.008;2024-02-21T09:35:35;101473.00;;;1.25;40.96
85105;BME280;75457;53.198;45.008;2024-02-21T09:38:01;101466.00;;;1.16;40.31
85105;BME280;75457;53.198;45.008;2024-02-21T09:40:27;101471.28;;;1.12;40.93
85105;BME280;75457;53.198;45.008;2024-02-21T09:43:02;101469.06;;;1.06;41.10
85105;BME280;75457;53.198;45.008;2024-02-21T09:45:28;101469.84;;;1.15;40.83
85105;BME280;75457;53.198;45.008;2024-02-21T09:48:11;101461.00;;;1.26;40.33
85105;BME280;75457;53.198;45.008;2024-02-21T09:50:40;101473.19;;;1.49;40.08
85105;BME280;75457;53.198;45.008;2024-02-21T09:53:06;101453.56;;;1.52;40.85
85105;BME280;75457;53.198;45.008;2024-02-21T09:55:33;101461.66;;;1.61;40.47
85105;BME280;75457;53.198;45.008;2024-02-21T09:57:59;101455.59;;;1.84;40.03
85105;BME280;75457;53.198;45.008;2024-02-21T10:00:26;101459.25;;;1.88;40.28
85105;BME280;75457;53.198;45.008;2024-02-21T10:02:52;101454.91;;;1.87;39.91
85105;BME280;75457;53.198;45.008;2024-02-21T10:05:19;101450.41;;;1.71;39.56
85105;BME280;75457;53.198;45.008;2024-02-21T10:07:44;101447.97;;;1.78;39.86
85105;BME280;75457;53.198;45.008;2024-02-21T10:10:10;101451.47;;;1.78;39.24
85105;BME280;75457;53.198;45.008;2024-02-21T10:12:36;101445.50;;;1.64;39.55
85105;BME280;75457;53.198;45.008;2024-02-21T10:15:02;101450.53;;;1.45;39.61
85105;BME280;75457;53.198;45.008;2024-02-21T10:17:27;101440.00;;;1.52;39.57
85105;BME280;75457;53.198;45.008;2024-02-21T10:19:53;101447.81;;;1.74;39.53
85105;BME280;75457;53.198;45.008;2024-02-21T10:22:20;101447.50;;;1.76;38.96
85105;BME280;75457;53.198;45.008;2024-02-21T10:24:45;101452.56;;;1.57;39.41
85105;BME280;75457;53.198;45.008;2024-02-21T10:27:11;101447.66;;;1.50;39.83
85105;BME280;75457;53.198;45.008;2024-02-21T10:29:37;101447.03;;;1.45;39.75
85105;BME280;75457;53.198;45.008;2024-02-21T10:32:05;101439.91;;;1.40;39.61
85105;BME280;75457;53.198;45.008;2024-02-21T10:34:30;101439.34;;;1.47;39.18
85105;BME280;75457;53.198;45.008;2024-02-21T10:37:00;101436.69;;;1.38;39.24
85105;BME280;75457;53.198;45.008;2024-02-21T10:39:27;101432.72;;;1.36;39.92
85105;BME280;75457;53.198;45.008;2024-02-21T10:41:53;101429.63;;;1.46;39.57
85105;BME280;75457;53.198;45.008;2024-02-21T10:44:20;101429.13;;;1.52;39.06
85105;BME280;75457;53.198;45.008;2024-02-21T10:46:46;101438.69;;;1.58;39.14
85105;BME280;75457;53.198;45.008;2024-02-21T10:49:18;101429.22;;;1.64;39.04
85105;BME280;75457;53.198;45.008;2024-02-21T10:51:48;101423.38;;;1.74;38.82
85105;BME280;75457;53.198;45.008;2024-02-21T10:54:25;101416.69;;;2.13;39.44
85105;BME280;75457;53.198;45.008;2024-02-21T10:56:57;101419.94;;;2.47;39.22
85105;BME280;75457;53.198;45.008;2024-02-21T10:59:23;101422.88;;;2.54;39.48
85105;BME280;75457;53.198;45.008;2024-02-21T11:01:50;101419.31;;;2.74;38.91
85105;BME280;75457;53.198;45.008;2024-02-21T11:04:16;101420.25;;;2.78;38.39
85105;BME280;75457;53.198;45.008;2024-02-21T11:06:42;101415.97;;;2.89;38.69
85105;BME280;75457;53.198;45.008;2024-02-21T11:09:09;101409.84;;;3.16;37.82
85105;BME280;75457;53.198;45.008;2024-02-21T11:11:35;101421.22;;;3.54;37.62
85105;BME280;75457;53.198;45.008;2024-02-21T11:14:07;101414.00;;;3.74;37.36
85105;BME280;75457;53.198;45.008;2024-02-21T11:16:36;101418.34;;;3.63;38.02
85105;BME280;75457;53.198;45.008;2024-02-21T11:19:08;101412.06;;;3.86;37.56
85105;BME280;75457;53.198;45.008;2024-02-21T11:21:35;101402.34;;;4.40;37.36
85105;BME280;75457;53.198;45.008;2024-02-21T11:24:01;101404.34;;;4.55;37.03
85105;BME280;75457;53.198;45.008;2024-02-21T11:26:28;101406.47;;;4.34;36.61
85105;BME280;75457;53.198;45.008;2024-02-21T11:28:58;101399.44;;;4.33;36.85
85105;BME280;75457;53.198;45.008;2024-02-21T11:31:25;101408.50;;;4.37;36.52
85105;BME280;75457;53.198;45.008;2024-02-21T11:33:51;101403.69;;;4.46;36.44
85105;BME280;75457;53.198;45.008;2024-02-21T11:36:24;101406.41;;;5.20;35.92
85105;BME280;75457;53.198;45.008;2024-02-21T11:38:50;101396.16;;;5.48;35.82
85105;BME280;75457;53.198;45.008;2024-02-21T11:41:16;101401.09;;;5.93;35.87
85105;BME280;75457;53.198;45.008;2024-02-21T11:43:42;101399.28;;;6.57;35.39
85105;BME280;75457;53.198;45.008;2024-02-21T11:46:07;101389.38;;;6.91;34.43
85105;BME280;75457;53.198;45.008;2024-02-21T11:48:34;101387.59;;;7.24;34.67
85105;BME280;75457;53.198;45.008;2024-02-21T11:51:00;101376.69;;;7.80;33.42
85105;BME280;75457;53.198;45.008;2024-02-21T11:53:26;101384.41;;;8.30;33.60
85105;BME280;75457;53.198;45.008;2024-02-21T11:55:51;101378.41;;;8.90;32.30
85105;BME280;75457;53.198;45.008;2024-02-21T11:58:17;101372.41;;;9.24;32.05
85105;BME280;75457;53.198;45.008;2024-02-21T12:00:42;101373.91;;;9.72;31.40
85105;BME280;75457;53.198;45.008;2024-02-21T12:03:08;101374.53;;;10.06;30.61
85105;BME280;75457;53.198;45.008;2024-02-21T12:05:35;101374.53;;;10.06;30.46
85105;BME280;75457;53.198;45.008;2024-02-21T12:08:01;101377.88;;;9.75;30.48
85105;BME280;75457;53.198;45.008;2024-02-21T12:10:26;101370.03;;;9.84;30.60
85105;BME280;75457;53.198;45.008;2024-02-21T12:12:52;101377.97;;;9.35;30.47
85105;BME280;75457;53.198;45.008;2024-02-21T12:15:18;101384.16;;;8.78;30.43
85105;BME280;75457;53.198;45.008;2024-02-21T12:17:44;101379.22;;;8.21;30.57
85105;BME280;75457;53.198;45.008;2024-02-21T12:20:10;101383.88;;;7.91;30.46
85105;BME280;75457;53.198;45.008;2024-02-21T12:22:37;101386.00;;;7.75;30.26
85105;BME280;75457;53.198;45.008;2024-02-21T12:25:03;101378.50;;;7.20;31.08
85105;BME280;75457;53.198;45.008;2024-02-21T12:27:29;101392.53;;;6.70;31.93
85105;BME280;75457;53.198;45.008;2024-02-21T12:29:55;101386.94;;;6.25;31.90
85105;BME280;75457;53.198;45.008;2024-02-21T12:32:20;101386.94;;;5.87;31.77
85105;BME280;75457;53.198;45.008;2024-02-21T12:34:46;101382.00;;;5.43;32.14
85105;BME280;75457;53.198;45.008;2024-02-21T12:37:12;101383.22;;;4.83;32.48